Time,TemperatureF,DewpointF,PressureIn,WindDirection,WindDirectionDegrees,WindSpeedMPH,WindSpeedGustMPH,Humidity,HourlyPrecipIn,Conditions,Clouds,dailyrainin,SolarRadiationWatts/m^2,SoftwareType,DateUTC
2013-05-27 00:02:00,72.0,66.0,30.05,NE,54,4.0,9.0,81,0.00,,,0.08,0.000000,,2013-05-27 10:02:00,
2013-05-27 00:12:00,72.0,66.0,30.05,NE,54,4.0,9.0,81,0.00,,,0.08,0.000000,,2013-05-27 10:12:00,
2013-05-27 00:32:00,70.0,65.0,30.04,NE,47,3.0,6.0,84,0.00,,,0.08,0.000000,,2013-05-27 10:32:00,
2013-05-27 00:42:00,70.0,65.0,30.04,NE,47,3.0,6.0,84,0.00,,,0.08,0.000000,,2013-05-27 10:42:00,
2013-05-27 00:52:00,70.0,65.0,30.04,NE,47,3.0,6.0,84,0.00,,,0.08,0.000000,,2013-05-27 10:52:00,
2013-05-27 01:02:00,70.0,65.0,30.04,NE,47,3.0,6.0,84,0.00,,,0.08,0.000000,,2013-05-27 11:02:00,
2013-05-27 01:11:00,70.0,65.0,30.04,NE,47,3.0,6.0,84,0.00,,,0.08,0.000000,,2013-05-27 11:11:00,
2013-05-27 01:32:00,70.0,65.0,30.03,NE,55,4.0,6.0,84,0.00,,,0.08,0.000000,,2013-05-27 11:32:00,
2013-05-27 01:42:00,70.0,65.0,30.03,NE,55,4.0,6.0,84,0.00,,,0.08,0.000000,,2013-05-27 11:42:00,
2013-05-27 01:52:00,70.0,65.0,30.03,NE,55,4.0,6.0,84,0.00,,,0.08,0.000000,,2013-05-27 11:52:00,
2013-05-27 02:01:00,70.0,65.0,30.03,NE,55,4.0,6.0,84,0.00,,,0.08,0.000000,,2013-05-27 12:01:00,
2013-05-27 02:11:00,70.0,65.0,30.03,NE,55,4.0,6.0,84,0.00,,,0.08,0.000000,,2013-05-27 12:11:00,
2013-05-27 02:32:00,70.0,65.0,30.00,ENE,60,2.0,6.0,85,0.00,,,0.08,0.000000,,2013-05-27 12:32:00,
2013-05-27 02:42:00,70.0,65.0,30.00,ENE,60,2.0,6.0,85,0.00,,,0.08,0.000000,,2013-05-27 12:42:00,
2013-05-27 02:52:00,70.0,65.0,30.00,ENE,60,2.0,6.0,85,0.00,,,0.08,0.000000,,2013-05-27 12:52:00,
2013-05-27 03:01:00,70.0,65.0,30.00,ENE,60,2.0,6.0,85,0.00,,,0.08,0.000000,,2013-05-27 13:01:00,
2013-05-27 03:11:00,70.0,65.0,30.00,ENE,60,2.0,6.0,85,0.00,,,0.08,0.000000,,2013-05-27 13:11:00,
2013-05-27 03:42:00,69.0,64.0,29.99,NE,53,5.0,7.0,84,0.00,,,0.08,0.000000,,2013-05-27 13:42:00,
2013-05-27 03:52:00,69.0,64.0,29.99,NE,53,5.0,7.0,84,0.00,,,0.08,0.000000,,2013-05-27 13:52:00,
2013-05-27 04:01:00,69.0,64.0,29.99,NE,53,5.0,7.0,84,0.00,,,0.08,0.000000,,2013-05-27 14:01:00,
2013-05-27 04:11:00,69.0,64.0,29.99,NE,53,5.0,7.0,84,0.00,,,0.08,0.000000,,2013-05-27 14:11:00,
2013-05-27 04:42:00,71.0,66.0,29.99,SE,125,2.0,8.0,83,0.00,,,0.08,0.000000,,2013-05-27 14:42:00,
2013-05-27 04:52:00,71.0,66.0,29.99,SE,125,2.0,8.0,83,0.00,,,0.08,0.000000,,2013-05-27 14:52:00,
2013-05-27 05:01:00,71.0,66.0,29.99,SE,125,2.0,8.0,83,0.00,,,0.08,0.000000,,2013-05-27 15:01:00,
2013-05-27 05:11:00,71.0,66.0,29.99,SE,125,2.0,8.0,83,0.00,,,0.08,0.000000,,2013-05-27 15:11:00,
2013-05-27 05:33:00,69.0,64.0,29.99,ESE,104,3.0,5.0,84,0.00,,,0.08,0.000000,,2013-05-27 15:33:00,
2013-05-27 05:43:00,69.0,64.0,29.99,ESE,104,3.0,5.0,84,0.00,,,0.08,0.000000,,2013-05-27 15:43:00,
2013-05-27 05:53:00,69.0,64.0,29.99,ESE,104,3.0,5.0,84,0.00,,,0.08,0.000000,,2013-05-27 15:53:00,
2013-05-27 06:02:00,69.0,64.0,29.99,ESE,104,3.0,5.0,84,0.00,,,0.08,0.000000,,2013-05-27 16:02:00,
2013-05-27 06:12:00,69.0,64.0,29.99,ESE,104,3.0,5.0,84,0.00,,,0.08,0.000000,,2013-05-27 16:12:00,
2013-05-27 06:33:00,70.0,64.0,30.00,East,98,2.0,6.0,82,0.00,,,0.08,6.000000,,2013-05-27 16:33:00,
2013-05-27 06:42:00,70.0,64.0,30.00,East,98,2.0,6.0,82,0.00,,,0.08,6.000000,,2013-05-27 16:42:00,
2013-05-27 06:52:00,70.0,64.0,30.00,East,98,2.0,6.0,82,0.00,,,0.08,6.000000,,2013-05-27 16:52:00,
2013-05-27 07:02:00,70.0,64.0,30.00,East,98,2.0,6.0,82,0.00,,,0.08,6.000000,,2013-05-27 17:02:00,
2013-05-27 07:11:00,70.0,64.0,30.00,East,98,2.0,6.0,82,0.00,,,0.08,6.000000,,2013-05-27 17:11:00,
2013-05-27 07:32:00,78.0,65.0,30.03,ESE,113,5.0,7.0,65,0.00,,,0.08,115.000000,,2013-05-27 17:32:00,
2013-05-27 07:43:00,78.0,65.0,30.03,ESE,113,5.0,7.0,65,0.00,,,0.08,115.000000,,2013-05-27 17:43:00,
2013-05-27 07:52:00,78.0,65.0,30.03,ESE,113,5.0,7.0,65,0.00,,,0.08,115.000000,,2013-05-27 17:52:00,
2013-05-27 08:02:00,78.0,65.0,30.03,ESE,113,5.0,7.0,65,0.00,,,0.08,115.000000,,2013-05-27 18:02:00,
2013-05-27 08:11:00,78.0,65.0,30.03,ESE,113,5.0,7.0,65,0.00,,,0.08,115.000000,,2013-05-27 18:11:00,
2013-05-27 08:32:00,81.0,67.0,30.04,SSE,151,8.0,13.0,62,0.00,,,0.08,342.000000,,2013-05-27 18:32:00,
2013-05-27 08:42:00,81.0,67.0,30.04,SSE,151,8.0,13.0,62,0.00,,,0.08,342.000000,,2013-05-27 18:42:00,
2013-05-27 08:52:00,81.0,67.0,30.04,SSE,151,8.0,13.0,62,0.00,,,0.08,342.000000,,2013-05-27 18:52:00,
2013-05-27 09:01:00,81.0,67.0,30.04,SSE,151,8.0,13.0,62,0.00,,,0.08,342.000000,,2013-05-27 19:01:00,
2013-05-27 09:11:00,81.0,67.0,30.04,SSE,151,8.0,13.0,62,0.00,,,0.08,342.000000,,2013-05-27 19:11:00,
2013-05-27 09:32:00,82.0,67.0,30.06,SW,217,6.0,10.0,61,0.00,,,0.08,565.000000,,2013-05-27 19:32:00,
2013-05-27 09:42:00,82.0,67.0,30.06,SW,217,6.0,10.0,61,0.00,,,0.08,565.000000,,2013-05-27 19:42:00,
2013-05-27 09:52:00,82.0,67.0,30.06,SW,217,6.0,10.0,61,0.00,,,0.08,565.000000,,2013-05-27 19:52:00,
2013-05-27 10:01:00,82.0,67.0,30.06,SW,217,6.0,10.0,61,0.00,,,0.08,565.000000,,2013-05-27 20:01:00,
2013-05-27 10:11:00,82.0,67.0,30.06,SW,217,6.0,10.0,61,0.00,,,0.08,565.000000,,2013-05-27 20:11:00,
2013-05-27 10:32:00,84.0,68.0,30.04,SW,226,7.0,11.0,58,0.00,,,0.08,806.000000,,2013-05-27 20:32:00,
2013-05-27 10:42:00,84.0,68.0,30.04,SW,226,7.0,11.0,58,0.00,,,0.08,806.000000,,2013-05-27 20:42:00,
2013-05-27 10:52:00,84.0,68.0,30.04,SW,226,7.0,11.0,58,0.00,,,0.08,806.000000,,2013-05-27 20:52:00,
2013-05-27 11:01:00,84.0,68.0,30.04,SW,226,7.0,11.0,58,0.00,,,0.08,806.000000,,2013-05-27 21:01:00,
2013-05-27 11:11:00,84.0,68.0,30.04,SW,226,7.0,11.0,58,0.00,,,0.08,806.000000,,2013-05-27 21:11:00,
2013-05-27 11:33:00,85.0,69.0,30.04,SW,226,9.0,12.0,58,0.00,,,0.08,1004.000000,,2013-05-27 21:33:00,
2013-05-27 11:43:00,85.0,69.0,30.04,SW,226,9.0,12.0,58,0.00,,,0.08,1004.000000,,2013-05-27 21:43:00,
2013-05-27 11:53:00,85.0,69.0,30.04,SW,226,9.0,12.0,58,0.00,,,0.08,1004.000000,,2013-05-27 21:53:00,
2013-05-27 12:02:00,85.0,69.0,30.04,SW,226,9.0,12.0,58,0.00,,,0.08,1004.000000,,2013-05-27 22:02:00,
2013-05-27 12:12:00,85.0,69.0,30.04,SW,226,9.0,12.0,58,0.00,,,0.08,1004.000000,,2013-05-27 22:12:00,
2013-05-27 12:33:00,84.0,68.0,30.03,WSW,237,9.0,14.0,58,0.00,,,0.08,1093.000000,,2013-05-27 22:33:00,
2013-05-27 12:42:00,84.0,68.0,30.03,WSW,237,9.0,14.0,58,0.00,,,0.08,1093.000000,,2013-05-27 22:42:00,
2013-05-27 12:53:00,84.0,68.0,30.03,WSW,237,9.0,14.0,58,0.00,,,0.08,1093.000000,,2013-05-27 22:53:00,
2013-05-27 13:02:00,84.0,68.0,30.03,WSW,237,9.0,14.0,58,0.00,,,0.08,1093.000000,,2013-05-27 23:02:00,
2013-05-27 13:12:00,84.0,68.0,30.03,WSW,237,9.0,14.0,58,0.00,,,0.08,1093.000000,,2013-05-27 23:12:00,
2013-05-27 13:42:00,85.0,68.0,30.03,SW,231,9.0,13.0,56,0.00,,,0.08,1114.000000,,2013-05-27 23:42:00,
2013-05-27 13:52:00,85.0,68.0,30.03,SW,231,9.0,13.0,56,0.00,,,0.08,1114.000000,,2013-05-27 23:52:00,
2013-05-27 14:01:00,85.0,68.0,30.03,SW,231,9.0,13.0,56,0.00,,,0.08,1114.000000,,2013-05-28 00:01:00,
2013-05-27 14:11:00,85.0,68.0,30.03,SW,231,9.0,13.0,56,0.00,,,0.08,1114.000000,,2013-05-28 00:11:00,
2013-05-27 15:32:00,84.0,67.0,30.01,WSW,248,8.0,12.0,57,-99.99,,,0.08,927.000000,,2013-05-28 01:32:00,
2013-05-27 15:42:00,84.0,67.0,30.01,WSW,248,8.0,12.0,57,-99.99,,,0.08,927.000000,,2013-05-28 01:42:00,
2013-05-27 15:52:00,84.0,67.0,30.01,WSW,248,8.0,12.0,57,-99.99,,,0.08,927.000000,,2013-05-28 01:52:00,
2013-05-27 16:02:00,84.0,67.0,30.01,WSW,248,8.0,12.0,57,-99.99,,,0.08,927.000000,,2013-05-28 02:02:00,
2013-05-27 16:11:00,84.0,67.0,30.01,WSW,248,8.0,12.0,57,-99.99,,,0.08,927.000000,,2013-05-28 02:11:00,
2013-05-27 16:32:00,84.0,67.0,29.99,WSW,239,9.0,12.0,57,0.00,,,0.00,781.000000,,2013-05-28 02:32:00,
2013-05-27 16:42:00,84.0,67.0,29.99,WSW,239,9.0,12.0,57,0.00,,,0.00,781.000000,,2013-05-28 02:42:00,
2013-05-27 16:52:00,84.0,67.0,29.99,WSW,239,9.0,12.0,57,0.00,,,0.00,781.000000,,2013-05-28 02:52:00,
2013-05-27 17:01:00,84.0,67.0,29.99,WSW,239,9.0,12.0,57,0.00,,,0.00,781.000000,,2013-05-28 03:01:00,
2013-05-27 17:11:00,84.0,67.0,29.99,WSW,239,9.0,12.0,57,0.00,,,0.00,781.000000,,2013-05-28 03:11:00,
2013-05-27 17:33:00,83.0,67.0,29.99,SSW,210,7.0,12.0,59,0.00,,,0.00,414.000000,,2013-05-28 03:33:00,
2013-05-27 17:43:00,83.0,67.0,29.99,SSW,210,7.0,12.0,59,0.00,,,0.00,414.000000,,2013-05-28 03:43:00,
2013-05-27 17:53:00,83.0,67.0,29.99,SSW,210,7.0,12.0,59,0.00,,,0.00,414.000000,,2013-05-28 03:53:00,
2013-05-27 18:02:00,83.0,67.0,29.99,SSW,210,7.0,12.0,59,0.00,,,0.00,414.000000,,2013-05-28 04:02:00,
2013-05-27 18:12:00,83.0,67.0,29.99,SSW,210,7.0,12.0,59,0.00,,,0.00,414.000000,,2013-05-28 04:12:00,
2013-05-27 18:33:00,82.0,68.0,30.01,SSE,158,8.0,15.0,63,0.00,,,0.00,345.000000,,2013-05-28 04:33:00,
2013-05-27 18:43:00,82.0,68.0,30.01,SSE,158,8.0,15.0,63,0.00,,,0.00,345.000000,,2013-05-28 04:43:00,
2013-05-27 18:52:00,82.0,68.0,30.01,SSE,158,8.0,15.0,63,0.00,,,0.00,345.000000,,2013-05-28 04:52:00,
2013-05-27 19:02:00,82.0,68.0,30.01,SSE,158,8.0,15.0,63,0.00,,,0.00,345.000000,,2013-05-28 05:02:00,
2013-05-27 19:12:00,82.0,68.0,30.01,SSE,158,8.0,15.0,63,0.00,,,0.00,345.000000,,2013-05-28 05:12:00,
2013-05-27 19:33:00,80.0,69.0,30.03,SSE,162,7.0,13.0,70,0.00,,,0.00,55.000000,,2013-05-28 05:33:00,
2013-05-27 19:42:00,80.0,69.0,30.03,SSE,162,7.0,13.0,70,0.00,,,0.00,55.000000,,2013-05-28 05:42:00,
2013-05-27 19:52:00,80.0,69.0,30.03,SSE,162,7.0,13.0,70,0.00,,,0.00,55.000000,,2013-05-28 05:52:00,
2013-05-27 20:02:00,80.0,69.0,30.03,SSE,162,7.0,13.0,70,0.00,,,0.00,55.000000,,2013-05-28 06:02:00,
2013-05-27 20:11:00,80.0,69.0,30.03,SSE,162,7.0,13.0,70,0.00,,,0.00,55.000000,,2013-05-28 06:11:00,
2013-05-27 20:32:00,79.0,68.0,30.04,South,191,5.0,10.0,69,0.00,,,0.00,0.000000,,2013-05-28 06:32:00,
2013-05-27 20:42:00,79.0,68.0,30.04,South,191,5.0,10.0,69,0.00,,,0.00,0.000000,,2013-05-28 06:42:00,
2013-05-27 20:52:00,79.0,68.0,30.04,South,191,5.0,10.0,69,0.00,,,0.00,0.000000,,2013-05-28 06:52:00,
2013-05-27 21:01:00,79.0,68.0,30.04,South,191,5.0,10.0,69,0.00,,,0.00,0.000000,,2013-05-28 07:01:00,
2013-05-27 21:11:00,79.0,68.0,30.04,South,191,5.0,10.0,69,0.00,,,0.00,0.000000,,2013-05-28 07:11:00,
2013-05-27 21:32:00,79.0,68.0,30.06,SSE,155,4.0,7.0,68,0.00,,,0.00,0.000000,,2013-05-28 07:32:00,
2013-05-27 21:42:00,79.0,68.0,30.06,SSE,155,4.0,7.0,68,0.00,,,0.00,0.000000,,2013-05-28 07:42:00,
2013-05-27 21:52:00,79.0,68.0,30.06,SSE,155,4.0,7.0,68,0.00,,,0.00,0.000000,,2013-05-28 07:52:00,
2013-05-27 22:02:00,79.0,68.0,30.06,SSE,155,4.0,7.0,68,0.00,,,0.00,0.000000,,2013-05-28 08:02:00,
2013-05-27 22:11:00,79.0,68.0,30.06,SSE,155,4.0,7.0,68,0.00,,,0.00,0.000000,,2013-05-28 08:11:00,
2013-05-27 22:32:00,77.0,69.0,30.07,ENE,69,5.0,9.0,76,0.00,,,0.00,0.000000,,2013-05-28 08:32:00,
2013-05-27 22:42:00,77.0,69.0,30.07,ENE,69,5.0,9.0,76,0.00,,,0.00,0.000000,,2013-05-28 08:42:00,
2013-05-27 22:52:00,77.0,69.0,30.07,ENE,69,5.0,9.0,76,0.00,,,0.00,0.000000,,2013-05-28 08:52:00,
2013-05-27 23:01:00,77.0,69.0,30.07,ENE,69,5.0,9.0,76,0.00,,,0.00,0.000000,,2013-05-28 09:01:00,
2013-05-27 23:11:00,77.0,69.0,30.07,ENE,69,5.0,9.0,76,0.00,,,0.00,0.000000,,2013-05-28 09:11:00,
2013-05-27 23:33:00,75.0,68.0,30.07,NE,53,4.0,7.0,80,0.00,,,0.00,0.000000,,2013-05-28 09:33:00,
2013-05-27 23:43:00,75.0,68.0,30.07,NE,53,4.0,7.0,80,0.00,,,0.00,0.000000,,2013-05-28 09:43:00,
2013-05-27 23:54:00,75.0,68.0,30.07,NE,53,4.0,7.0,80,0.00,,,0.00,0.000000,,2013-05-28 09:54:00,